createdAt,value
2018-08-31T00:00:34.102Z,98079.08
2018-08-31T00:03:04.279Z,98080.94
2018-08-31T00:05:49.427Z,98084.16
2018-08-31T00:09:31.500Z,98077.03
2018-08-31T00:12:38.442Z,98079.91
2018-08-31T00:15:08.705Z,98077.70
2018-08-31T00:17:39.912Z,98071.93
2018-08-31T00:20:10.810Z,98066.70
2018-08-31T00:22:40.680Z,98074.33
2018-08-31T00:25:22.581Z,98071.78
2018-08-31T00:28:03.005Z,98067.03
2018-08-31T00:30:43.947Z,98064.82
2018-08-31T00:33:39.533Z,98065.48
2018-08-31T00:36:34.571Z,98065.14
2018-08-31T00:39:17.479Z,98068.36
2018-08-31T00:41:56.049Z,98067.67
2018-08-31T00:44:39.557Z,98059.70
2018-08-31T00:47:09.552Z,98060.72
2018-08-31T00:49:41.170Z,98067.50
2018-08-31T00:52:10.980Z,98069.02
2018-08-31T00:54:41.123Z,98068.67
2018-08-31T00:57:10.873Z,98068.33
2018-08-31T00:59:41.235Z,98070.70
2018-08-31T01:02:11.175Z,98067.64
2018-08-31T01:04:41.448Z,98071.39
2018-08-31T01:07:11.520Z,98059.35
2018-08-31T01:09:41.617Z,98070.70
2018-08-31T01:12:12.169Z,98065.28
2018-08-31T01:14:41.992Z,98062.73
2018-08-31T01:17:12.304Z,98066.45
2018-08-31T01:19:42.319Z,98063.74
2018-08-31T01:22:12.156Z,98062.89
2018-08-31T01:24:42.005Z,98057.13
2018-08-31T01:27:12.371Z,98050.00
2018-08-31T01:29:42.159Z,98047.48
2018-08-31T01:32:12.709Z,98052.06
2018-08-31T01:34:43.601Z,98046.63
2018-08-31T01:37:15.797Z,98049.34
2018-08-31T01:39:45.649Z,98047.80
2018-08-31T01:42:15.573Z,98056.45
2018-08-31T01:44:45.476Z,98054.41
2018-08-31T01:47:15.162Z,98053.05
2018-08-31T01:49:44.824Z,98050.84
2018-08-31T01:52:15.866Z,98050.50
2018-08-31T01:54:45.622Z,98050.16
2018-08-31T01:57:14.679Z,98048.99
2018-08-31T01:59:43.795Z,98051.20
2018-08-31T02:02:12.812Z,98058.98
2018-08-31T02:04:41.844Z,98056.44
2018-08-31T02:07:14.734Z,98050.67
2018-08-31T02:09:45.002Z,98047.95
2018-08-31T02:12:14.178Z,98052.69
2018-08-31T02:14:43.345Z,98053.20
2018-08-31T02:17:12.714Z,98054.71
2018-08-31T02:19:41.753Z,98056.07
2018-08-31T02:22:10.792Z,98059.80
2018-08-31T02:24:39.831Z,98056.77
2018-08-31T02:27:09.174Z,98056.77
2018-08-31T02:29:38.190Z,98055.57
2018-08-31T02:32:07.212Z,98055.23
2018-08-31T02:34:36.238Z,98055.73
2018-08-31T02:37:05.576Z,98057.59
2018-08-31T02:39:34.650Z,98052.33
2018-08-31T02:42:03.706Z,98059.61
2018-08-31T02:44:33.092Z,98056.05
2018-08-31T02:47:02.217Z,98057.06
2018-08-31T02:49:31.352Z,98061.33
2018-08-31T02:52:00.452Z,98059.46
2018-08-31T02:54:29.568Z,98057.76
2018-08-31T02:56:58.657Z,98056.91
2018-08-31T02:59:28.014Z,98052.50
2018-08-31T03:01:57.613Z,98059.44
2018-08-31T03:04:27.197Z,98057.07
2018-08-31T03:06:56.728Z,98064.52
2018-08-31T03:09:28.001Z,98061.30
2018-08-31T03:11:57.893Z,98061.96
2018-08-31T03:14:27.472Z,98057.89
2018-08-31T03:16:57.030Z,98058.56
2018-08-31T03:19:26.923Z,98060.77
2018-08-31T03:21:56.425Z,98059.09
2018-08-31T03:24:26.036Z,98054.18
2018-08-31T03:27:00.555Z,98056.05
2018-08-31T03:29:29.963Z,98061.97
2018-08-31T03:31:59.469Z,98056.20
2018-08-31T03:34:30.026Z,98057.55
2018-08-31T03:36:59.474Z,98062.12
2018-08-31T03:39:29.359Z,98059.92
2018-08-31T03:41:58.896Z,98058.22
2018-08-31T03:44:28.032Z,98055.16
2018-08-31T03:46:57.567Z,98060.74
2018-08-31T03:49:27.172Z,98060.23
2018-08-31T03:51:56.564Z,98059.89
2018-08-31T03:54:26.074Z,98058.19
2018-08-31T03:56:55.651Z,98058.73
2018-08-31T03:59:25.148Z,98059.23
2018-08-31T04:01:54.984Z,98059.39
2018-08-31T04:04:25.528Z,98059.39
2018-08-31T04:06:54.951Z,98063.11
2018-08-31T04:09:25.416Z,98061.41
2018-08-31T04:11:54.628Z,98057.00
2018-08-31T04:14:23.812Z,98061.57
2018-08-31T04:16:53.256Z,98059.36
2018-08-31T04:19:22.810Z,98061.57
2018-08-31T04:21:52.273Z,98054.95
2018-08-31T04:24:21.872Z,98059.02
2018-08-31T04:26:51.509Z,98061.88
2018-08-31T04:29:20.884Z,98057.50
2018-08-31T04:31:50.928Z,98054.30
2018-08-31T04:34:20.480Z,98061.57
2018-08-31T04:36:49.912Z,98052.24
2018-08-31T04:39:19.328Z,98057.66
2018-08-31T04:41:48.819Z,98058.67
2018-08-31T04:44:19.993Z,98056.47
2018-08-31T04:46:49.725Z,98059.69
2018-08-31T04:49:19.104Z,98049.34
2018-08-31T04:51:48.610Z,98062.55
2018-08-31T04:54:18.571Z,98064.75
2018-08-31T04:56:48.064Z,98061.70
2018-08-31T04:59:17.846Z,98065.77
2018-08-31T05:01:47.252Z,98059.14
2018-08-31T05:04:16.892Z,98068.13
2018-08-31T05:06:46.270Z,98067.47
2018-08-31T05:09:15.566Z,98070.17
2018-08-31T05:11:45.053Z,98066.27
2018-08-31T05:14:14.672Z,98064.41
2018-08-31T05:16:44.372Z,98066.61
2018-08-31T05:19:13.864Z,98062.55
2018-08-31T05:21:43.320Z,98064.91
2018-08-31T05:24:13.169Z,98073.04
2018-08-31T05:26:42.384Z,98071.69
2018-08-31T05:29:11.889Z,98068.13
2018-08-31T05:31:41.505Z,98067.94
2018-08-31T05:34:11.142Z,98076.41
2018-08-31T05:36:40.499Z,98070.14
2018-08-31T05:39:12.031Z,98072.66
2018-08-31T05:41:41.892Z,98078.08
2018-08-31T05:44:11.532Z,98078.08
2018-08-31T05:46:41.175Z,98082.64
2018-08-31T05:49:11.140Z,98083.15
2018-08-31T05:51:40.596Z,98082.48
2018-08-31T05:54:10.295Z,98087.55
2018-08-31T05:56:39.562Z,98082.14
2018-08-31T05:59:08.948Z,98084.84
2018-08-31T06:01:38.496Z,98088.56
2018-08-31T06:04:08.385Z,98084.16
2018-08-31T06:06:37.968Z,98092.28
2018-08-31T06:09:09.052Z,98090.92
2018-08-31T06:11:38.655Z,98099.05
2018-08-31T06:14:07.985Z,98096.97
2018-08-31T06:16:37.267Z,98098.20
2018-08-31T06:19:06.772Z,98109.51
2018-08-31T06:21:37.768Z,98108.53
2018-08-31T06:24:07.384Z,98104.09
2018-08-31T06:26:36.963Z,98111.24
2018-08-31T06:29:06.565Z,98108.16
2018-08-31T06:31:36.208Z,98112.22
2018-08-31T06:34:05.637Z,98118.02
2018-08-31T06:36:35.212Z,98115.81
2018-08-31T06:39:06.052Z,98110.39
2018-08-31T06:41:35.288Z,98118.36
2018-08-31T06:44:04.897Z,98114.80
2018-08-31T06:46:35.028Z,98116.50
2018-08-31T06:49:04.417Z,98116.00
2018-08-31T06:51:33.770Z,98121.42
2018-08-31T06:54:03.490Z,98128.03
2018-08-31T06:56:33.235Z,98123.12
2018-08-31T06:59:02.648Z,98121.77
2018-08-31T07:01:32.188Z,98120.22
2018-08-31T07:04:01.852Z,98125.64
2018-08-31T07:06:32.572Z,98125.14
2018-08-31T07:09:02.496Z,98126.84
2018-08-31T07:11:32.124Z,98128.70
2018-08-31T07:14:01.596Z,98126.34
2018-08-31T07:16:31.229Z,98127.53
2018-08-31T07:19:01.956Z,98127.03
2018-08-31T07:21:32.118Z,98136.02
2018-08-31T07:24:01.478Z,98133.30
2018-08-31T07:26:31.194Z,98140.42
2018-08-31T07:29:00.592Z,98143.13
2018-08-31T07:31:30.108Z,98144.84
2018-08-31T07:33:59.926Z,98141.28
2018-08-31T07:36:29.327Z,98140.77
2018-08-31T07:38:58.827Z,98141.44
2018-08-31T07:41:28.468Z,98142.79
2018-08-31T07:43:58.488Z,98146.34
2018-08-31T07:46:28.528Z,98148.56
2018-08-31T07:48:57.872Z,98149.25
2018-08-31T07:51:27.711Z,98144.84
2018-08-31T07:53:57.239Z,98155.02
2018-08-31T07:56:26.429Z,98149.75
2018-08-31T07:58:55.737Z,98149.25
2018-08-31T08:01:26.055Z,98156.37
2018-08-31T08:03:55.312Z,98160.28
2018-08-31T08:06:24.612Z,98161.98
2018-08-31T08:08:54.034Z,98165.89
2018-08-31T08:11:23.553Z,98159.78
2018-08-31T08:13:53.055Z,98165.20
2018-08-31T08:16:22.429Z,98163.53
2018-08-31T08:18:51.917Z,98158.63
2018-08-31T08:21:21.288Z,98165.08
2018-08-31T08:23:51.074Z,98166.28
2018-08-31T08:26:20.665Z,98171.01
2018-08-31T08:28:50.101Z,98168.14
2018-08-31T08:31:19.384Z,98170.20
2018-08-31T08:33:48.884Z,98174.95
2018-08-31T08:36:18.468Z,98171.58
2018-08-31T08:38:47.987Z,98169.88
2018-08-31T08:41:17.956Z,98169.72
2018-08-31T08:43:48.036Z,98170.77
2018-08-31T08:46:17.454Z,98173.32
2018-08-31T08:48:47.290Z,98176.53
2018-08-31T08:51:16.914Z,98168.24
2018-08-31T08:53:46.468Z,98166.89
2018-08-31T08:56:17.408Z,98169.59
2018-08-31T08:58:46.724Z,98165.03
2018-08-31T09:01:16.332Z,98167.58
2018-08-31T09:03:45.931Z,98167.93
2018-08-31T09:06:15.344Z,98163.17
2018-08-31T09:08:44.940Z,98167.08
2018-08-31T09:11:14.351Z,98161.66
2018-08-31T09:13:43.747Z,98164.55
2018-08-31T09:16:13.340Z,98164.39
2018-08-31T09:18:42.793Z,98160.67
2018-08-31T09:21:11.955Z,98165.41
2018-08-31T09:23:42.614Z,98161.68
2018-08-31T09:26:13.965Z,98160.67
2018-08-31T09:28:43.532Z,98157.45
2018-08-31T09:31:15.808Z,98159.00
2018-08-31T09:33:45.146Z,98157.98
2018-08-31T09:36:15.064Z,98156.13
2018-08-31T09:38:44.918Z,98154.61
2018-08-31T09:41:14.274Z,98152.72
2018-08-31T09:43:44.124Z,98149.84
2018-08-31T09:46:13.542Z,98152.39
2018-08-31T09:48:42.756Z,98154.61
2018-08-31T09:51:13.022Z,98147.83
2018-08-31T09:53:42.592Z,98150.03
2018-08-31T09:56:12.344Z,98145.45
2018-08-31T09:58:41.824Z,98146.14
2018-08-31T10:01:16.321Z,98142.08
2018-08-31T10:03:45.772Z,98150.06
2018-08-31T10:06:15.184Z,98142.23
2018-08-31T10:08:44.671Z,98143.94
2018-08-31T10:11:16.726Z,98144.28
2018-08-31T10:13:46.345Z,98143.61
2018-08-31T10:16:16.347Z,98143.45
2018-08-31T10:18:45.865Z,98144.65
2018-08-31T10:21:15.329Z,98136.00
2018-08-31T10:23:44.806Z,98142.12
2018-08-31T10:26:16.049Z,98137.20
2018-08-31T10:28:46.791Z,98133.98
2018-08-31T10:31:17.956Z,98128.39
2018-08-31T10:33:47.533Z,98126.19
2018-08-31T10:36:16.883Z,98131.29
2018-08-31T10:38:46.284Z,98127.91
2018-08-31T10:41:15.546Z,98132.83
2018-08-31T10:43:46.225Z,98131.31
2018-08-31T10:46:15.344Z,98130.61
2018-08-31T10:48:44.857Z,98128.59
2018-08-31T10:51:14.412Z,98133.51
2018-08-31T10:53:43.764Z,98132.15
2018-08-31T10:56:13.365Z,98125.71
2018-08-31T10:58:42.876Z,98132.84
2018-08-31T11:01:12.588Z,98131.32
2018-08-31T11:03:42.493Z,98126.40
2018-08-31T11:06:12.703Z,98128.10
2018-08-31T11:08:42.144Z,98139.61
2018-08-31T11:11:11.628Z,98140.97
2018-08-31T11:13:40.863Z,98143.02
2018-08-31T11:16:10.505Z,98137.77
2018-08-31T11:18:40.062Z,98135.40
2018-08-31T11:21:09.672Z,98138.96
2018-08-31T11:23:38.989Z,98143.38
2018-08-31T11:26:08.596Z,98140.81
2018-08-31T11:28:37.991Z,98131.31
2018-08-31T11:31:07.473Z,98135.56
2018-08-31T11:33:36.989Z,98127.77
2018-08-31T11:36:06.683Z,98130.83
2018-08-31T11:38:37.361Z,98129.81
2018-08-31T11:41:06.747Z,98132.52
2018-08-31T11:43:36.473Z,98131.00
2018-08-31T11:46:05.754Z,98125.58
2018-08-31T11:48:35.377Z,98128.95
2018-08-31T11:51:05.021Z,98134.37
2018-08-31T11:53:34.471Z,98129.28
2018-08-31T11:56:04.333Z,98136.07
2018-08-31T11:58:33.928Z,98140.48
2018-08-31T12:01:03.939Z,98134.55
2018-08-31T12:03:33.325Z,98131.84
2018-08-31T12:06:02.707Z,98127.77
2018-08-31T12:08:32.105Z,98120.47
2018-08-31T12:11:01.876Z,98124.89
2018-08-31T12:13:32.385Z,98124.38
2018-08-31T12:16:02.691Z,98119.80
2018-08-31T12:18:33.040Z,98116.58
2018-08-31T12:21:03.815Z,98114.20
2018-08-31T12:23:34.256Z,98111.49
2018-08-31T12:26:04.296Z,98115.05
2018-08-31T12:28:33.799Z,98105.36
2018-08-31T12:31:05.076Z,98108.92
2018-08-31T12:33:34.526Z,98102.64
2018-08-31T12:36:04.285Z,98104.34
2018-08-31T12:38:35.292Z,98104.69
2018-08-31T12:41:05.065Z,98102.48
2018-08-31T12:43:34.832Z,98100.45
2018-08-31T12:46:04.389Z,98098.58
2018-08-31T12:48:35.435Z,98103.50
2018-08-31T12:51:05.467Z,98111.66
2018-08-31T12:53:34.960Z,98113.01
2018-08-31T12:56:05.114Z,98108.59
2018-08-31T12:58:35.640Z,98111.31
2018-08-31T13:01:05.828Z,98117.25
2018-08-31T13:03:35.261Z,98112.32
2018-08-31T13:06:04.812Z,98113.17
2018-08-31T13:08:34.219Z,98112.16
2018-08-31T13:11:04.038Z,98113.86
2018-08-31T13:13:33.617Z,98112.00
2018-08-31T13:16:03.589Z,98110.13
2018-08-31T13:18:32.997Z,98110.13
2018-08-31T13:21:02.725Z,98108.77
2018-08-31T13:23:32.268Z,98105.89
2018-08-31T13:26:01.710Z,98101.82
2018-08-31T13:28:31.898Z,98102.13
2018-08-31T13:31:01.258Z,98098.56
2018-08-31T13:33:31.163Z,98092.62
2018-08-31T13:36:02.387Z,98098.91
2018-08-31T13:38:31.834Z,98097.04
2018-08-31T13:41:01.064Z,98091.10
2018-08-31T13:43:30.561Z,98094.67
2018-08-31T13:46:01.922Z,98094.16
2018-08-31T13:48:31.609Z,98095.01
2018-08-31T13:51:02.949Z,98100.44
2018-08-31T13:53:33.440Z,98099.42
2018-08-31T13:56:03.147Z,98100.27
2018-08-31T13:58:33.044Z,98098.58
2018-08-31T14:01:02.664Z,98102.98
2018-08-31T14:03:32.136Z,98097.91
2018-08-31T14:06:01.621Z,98103.33
2018-08-31T14:08:31.131Z,98098.75
2018-08-31T14:11:00.531Z,98095.87
2018-08-31T14:13:29.996Z,98108.94
2018-08-31T14:16:00.533Z,98106.02
2018-08-31T14:18:30.976Z,98106.53
2018-08-31T14:21:00.750Z,98104.16
2018-08-31T14:23:29.865Z,98104.16
2018-08-31T14:25:59.152Z,98104.16
2018-08-31T14:28:28.676Z,98106.53
2018-08-31T14:30:57.960Z,98103.14
2018-08-31T14:33:27.964Z,98106.71
2018-08-31T14:35:57.678Z,98107.90
2018-08-31T14:38:27.188Z,98105.01
2018-08-31T14:40:56.712Z,98104.67
2018-08-31T14:43:26.325Z,98107.22
2018-08-31T14:45:56.787Z,98104.50
2018-08-31T14:48:26.467Z,98112.83
2018-08-31T14:50:56.074Z,98113.84
2018-08-31T14:53:25.892Z,98111.63
2018-08-31T14:55:56.734Z,98106.37
2018-08-31T14:58:26.047Z,98108.07
2018-08-31T15:00:55.551Z,98105.70
2018-08-31T15:03:25.579Z,98108.41
2018-08-31T15:05:54.889Z,98100.77
2018-08-31T15:08:24.387Z,98108.24
2018-08-31T15:10:53.967Z,98107.90
2018-08-31T15:13:23.615Z,98110.62
2018-08-31T15:15:53.188Z,98114.69
2018-08-31T15:18:22.701Z,98112.83
2018-08-31T15:20:51.993Z,98117.41
2018-08-31T15:23:21.400Z,98113.67
2018-08-31T15:25:51.408Z,98113.17
2018-08-31T15:28:21.110Z,98113.17
2018-08-31T15:30:50.223Z,98117.24
2018-08-31T15:33:21.265Z,98109.60
2018-08-31T15:35:50.786Z,98108.59
2018-08-31T15:38:20.082Z,98105.87
2018-08-31T15:40:49.294Z,98104.85
2018-08-31T15:43:19.369Z,98104.14
2018-08-31T15:45:48.612Z,98110.63
2018-08-31T15:48:17.992Z,98107.20
2018-08-31T15:50:47.634Z,98104.48
2018-08-31T15:53:17.435Z,98104.83
2018-08-31T15:55:46.926Z,98104.48
2018-08-31T15:58:16.405Z,98100.92
2018-08-31T16:00:45.966Z,98106.86
2018-08-31T16:03:15.404Z,98100.58
2018-08-31T16:05:44.638Z,98101.43
2018-08-31T16:08:13.732Z,98106.86
2018-08-31T16:10:43.121Z,98106.70
2018-08-31T16:13:12.245Z,98112.64
2018-08-31T16:15:41.512Z,98111.28
2018-08-31T16:18:10.977Z,98114.00
2018-08-31T16:20:40.125Z,98111.78
2018-08-31T16:23:09.256Z,98107.20
2018-08-31T16:25:38.444Z,98111.63
2018-08-31T16:28:08.261Z,98111.28
2018-08-31T16:30:37.620Z,98108.56
2018-08-31T16:33:07.059Z,98114.00
2018-08-31T16:35:36.807Z,98110.42
2018-08-31T16:38:07.047Z,98115.02
2018-08-31T16:40:37.549Z,98110.77
2018-08-31T16:43:06.979Z,98114.36
2018-08-31T16:45:36.844Z,98118.44
2018-08-31T16:48:06.848Z,98111.64
2018-08-31T16:50:36.657Z,98114.02
2018-08-31T16:53:07.038Z,98113.00
2018-08-31T16:55:36.931Z,98113.51
2018-08-31T16:58:06.681Z,98114.02
2018-08-31T17:00:36.337Z,98118.94
2018-08-31T17:03:06.195Z,98116.39
2018-08-31T17:05:35.932Z,98112.31
2018-08-31T17:08:05.372Z,98116.90
2018-08-31T17:10:34.848Z,98120.47
2018-08-31T17:18:22.825Z,98124.70
2018-08-31T17:20:53.128Z,98118.77
2018-08-31T17:23:23.498Z,98121.14
2018-08-31T17:25:53.025Z,98117.23
2018-08-31T17:28:27.761Z,98125.88
2018-08-31T17:31:02.426Z,98119.95
2018-08-31T17:33:38.461Z,98120.96
2018-08-31T17:36:12.928Z,98128.45
2018-08-31T17:38:42.247Z,98129.12
2018-08-31T17:41:12.129Z,98133.71
2018-08-31T17:43:41.660Z,98136.08
2018-08-31T17:46:10.975Z,98140.83
2018-08-31T17:48:40.784Z,98147.11
2018-08-31T17:51:10.748Z,98142.69
2018-08-31T17:53:40.263Z,98144.22
2018-08-31T17:56:09.930Z,98142.55
2018-08-31T17:58:39.483Z,98146.62
2018-08-31T18:01:09.673Z,98146.28
2018-08-31T18:03:39.579Z,98142.37
2018-08-31T18:06:11.279Z,98155.44
2018-08-31T18:08:41.085Z,98152.03
2018-08-31T18:11:10.864Z,98151.52
2018-08-31T18:13:40.364Z,98160.36
2018-08-31T18:16:10.107Z,98150.68
2018-08-31T18:18:40.068Z,98157.63
2018-08-31T18:21:10.150Z,98162.71
2018-08-31T18:23:40.637Z,98157.61
2018-08-31T18:26:10.228Z,98161.38
2018-08-31T18:28:39.796Z,98171.53
2018-08-31T18:31:10.477Z,98168.13
2018-08-31T18:33:39.970Z,98166.09
2018-08-31T18:36:10.313Z,98170.33
2018-08-31T18:38:40.808Z,98168.31
2018-08-31T18:41:10.436Z,98172.54
2018-08-31T18:43:39.732Z,98172.36
2018-08-31T18:46:09.689Z,98169.30
2018-08-31T18:48:44.013Z,98177.61
2018-08-31T18:51:13.320Z,98180.16
2018-08-31T18:53:42.865Z,98180.83
2018-08-31T18:56:12.385Z,98183.20
2018-08-31T18:58:41.835Z,98186.58
2018-08-31T19:01:11.619Z,98195.39
2018-08-31T19:03:41.096Z,98199.97
2018-08-31T19:06:11.464Z,98204.89
2018-08-31T19:08:42.920Z,98206.06
2018-08-31T19:11:12.862Z,98205.88
2018-08-31T19:13:42.095Z,98205.56
2018-08-31T19:16:12.247Z,98212.63
2018-08-31T19:18:41.369Z,98216.00
2018-08-31T19:21:11.263Z,98218.37
2018-08-31T19:23:40.667Z,98220.89
2018-08-31T19:26:10.377Z,98227.36
2018-08-31T19:28:40.218Z,98224.63
2018-08-31T19:31:10.339Z,98218.66
2018-08-31T19:33:39.833Z,98228.84
2018-08-31T19:36:09.221Z,98231.91
2018-08-31T19:38:38.703Z,98228.84
2018-08-31T19:41:08.163Z,98231.21
2018-08-31T19:43:38.364Z,98227.80
2018-08-31T19:46:07.629Z,98243.23
2018-08-31T19:48:37.199Z,98239.66
2018-08-31T19:51:06.741Z,98239.00
2018-08-31T19:53:36.284Z,98246.13
2018-08-31T19:56:06.338Z,98247.80
2018-08-31T19:58:35.826Z,98240.48
2018-08-31T20:01:06.354Z,98242.38
2018-08-31T20:03:35.726Z,98243.03
2018-08-31T20:06:05.348Z,98243.73
2018-08-31T20:08:35.234Z,98243.03
2018-08-31T20:11:04.849Z,98250.31
2018-08-31T20:13:34.374Z,98254.54
2018-08-31T20:16:03.917Z,98251.13
2018-08-31T20:18:33.278Z,98251.64
2018-08-31T20:21:02.889Z,98256.20
2018-08-31T20:23:32.686Z,98258.25
2018-08-31T20:26:02.096Z,98258.76
2018-08-31T20:28:31.708Z,98260.11
2018-08-31T20:31:01.312Z,98260.27
2018-08-31T20:33:30.701Z,98257.21
2018-08-31T20:36:00.216Z,98261.28
2018-08-31T20:38:29.828Z,98264.49
2018-08-31T20:40:59.520Z,98259.73
2018-08-31T20:43:29.292Z,98258.02
2018-08-31T20:45:58.743Z,98258.53
2018-08-31T20:48:28.171Z,98263.09
2018-08-31T20:50:59.063Z,98263.60
2018-08-31T20:53:30.161Z,98267.36
2018-08-31T20:55:59.636Z,98265.65
2018-08-31T20:58:29.294Z,98271.73
2018-08-31T21:00:58.784Z,98275.30
2018-08-31T21:03:28.484Z,98273.73
2018-08-31T21:05:58.612Z,98278.31
2018-08-31T21:08:28.178Z,98278.31
2018-08-31T21:10:57.808Z,98275.41
2018-08-31T21:13:27.121Z,98273.23
2018-08-31T21:15:56.716Z,98276.95
2018-08-31T21:18:26.611Z,98274.23
2018-08-31T21:20:55.762Z,98277.95
2018-08-31T21:23:25.620Z,98273.03
2018-08-31T21:25:54.989Z,98273.69
2018-08-31T21:28:24.402Z,98268.27
2018-08-31T21:30:54.090Z,98274.20
2018-08-31T21:33:23.587Z,98276.91
2018-08-31T21:35:53.133Z,98277.06
2018-08-31T21:38:22.587Z,98281.28
2018-08-31T21:40:52.599Z,98283.14
2018-08-31T21:43:22.236Z,98279.25
2018-08-31T21:45:51.828Z,98290.09
2018-08-31T21:48:21.280Z,98285.68
2018-08-31T21:50:50.960Z,98277.36
2018-08-31T21:53:20.936Z,98277.70
2018-08-31T21:55:50.499Z,98282.42
2018-08-31T21:58:19.963Z,98286.99
2018-08-31T22:00:49.808Z,98282.58
2018-08-31T22:03:19.288Z,98288.50
2018-08-31T22:05:50.592Z,98284.63
2018-08-31T22:08:20.202Z,98291.05
2018-08-31T22:10:49.585Z,98286.98
2018-08-31T22:13:19.224Z,98280.01
2018-08-31T22:15:48.670Z,98282.72
2018-08-31T22:18:18.192Z,98280.01
2018-08-31T22:20:47.727Z,98281.16
2018-08-31T22:23:16.982Z,98282.02
2018-08-31T22:25:46.484Z,98279.97
2018-08-31T22:28:16.333Z,98277.94
2018-08-31T22:30:45.828Z,98282.33
2018-08-31T22:33:15.459Z,98283.36
2018-08-31T22:35:45.026Z,98280.15
2018-08-31T22:38:14.633Z,98282.16
2018-08-31T22:40:44.108Z,98280.66
2018-08-31T22:43:13.640Z,98281.31
2018-08-31T22:45:43.548Z,98285.87
2018-08-31T22:48:13.069Z,98286.87
2018-08-31T22:50:42.565Z,98280.25
2018-08-31T22:53:11.977Z,98279.25
2018-08-31T22:55:41.476Z,98282.61
2018-08-31T22:58:11.002Z,98278.20
2018-08-31T23:00:40.495Z,98282.27
2018-08-31T23:03:10.079Z,98284.13
2018-08-31T23:05:39.499Z,98281.09
2018-08-31T23:08:09.005Z,98278.89
2018-08-31T23:10:38.715Z,98283.10
2018-08-31T23:13:08.423Z,98281.39
2018-08-31T23:15:37.828Z,98276.48
2018-08-31T23:18:07.431Z,98280.55
2018-08-31T23:20:36.760Z,98281.16
2018-08-31T23:25:50.891Z,98278.76
2018-08-31T23:28:21.721Z,98283.17
2018-08-31T23:30:51.179Z,98283.36
2018-08-31T23:33:20.680Z,98286.88
2018-08-31T23:35:51.021Z,98290.62
2018-08-31T23:38:20.391Z,98288.92
2018-08-31T23:40:49.711Z,98292.14
2018-08-31T23:43:19.622Z,98288.22
2018-08-31T23:45:48.919Z,98296.00
2018-08-31T23:48:18.455Z,98292.08
2018-08-31T23:50:48.390Z,98288.88
2018-08-31T23:53:18.269Z,98289.38
2018-08-31T23:55:47.645Z,98290.38
2018-08-31T23:58:17.186Z,98287.67
